Penang International Airport
WMKP : now visible

Airfield :











YOU CAN JOIN US ON...

 
LOGIN :

Register | Disclaimer

   EN    FR    IT 

 









Legend :    VFR   Marginal VFR   IFR   Intensive IFR   Very Intensive IFR
Visi :
Ceiling :
>= 8 km
>= 3000ft
5 to 8 km
1000 to 3000 ft
1500m to 5 km
500 to 1000 ft
800 to 1500m
200 to 500 ft
< 800m
< 200 ft
Symbols :   Thunderstorms  Fog  Heavy snow  Heavy precipitations  Wind > 20 kt






- Airport Elevation : 11 ft
- IATA code : PEN


WMKP - Penang International

CURRENT METAR :
  • 131500Z 00000KT 8000 FEW025 29/25 Q1008 NOSIG

EXPIRED METARs :
  • 131430Z VRB01KT 8000 FEW025 29/25 Q1008 NOSIG
  • 131400Z VRB02KT 8000 FEW025 29/25 Q1008 NOSIG
  • 131330Z VRB01KT 9000 FEW025 29/25 Q1007 NOSIG
  • 131300Z VRB02KT 9000 FEW025 30/26 Q1007 NOSIG
  • 131230Z VRB02KT 9000 FEW025 30/25 Q1007 NOSIG
  • 131200Z VRB03KT 9000 FEW020 30/25 Q1006 NOSIG
  • 131130Z 21005KT 9999 FEW020 30/25 Q1006 NOSIG
  • 131100Z 21006KT 9999 FEW020 31/25 Q1006 NOSIG
  • 131030Z 23006KT 190V260 9999 FEW020 31/25 Q1006 NOSIG

TAF TAF WMKP
Valid from the 13 at 12:00 until the 14 at 12:00 UTC


131100Z 1312/1412 VRB02KT 9000 FEW025
PROB30
TEMPO 1313/1314 6000 TSRA FEW010 FEW017CB
BECMG 1404/1406 22008KT 9999 FEW020
WMFC FIR / Asia



MET'MAP, your aeronautical weather chart ! - Copyright ORBIFLY December 2007 - Disclaimer

ORBIFLY MET'MAP TEAM :

Programming & Development : Alexandra Zaïnal
Original concept : Baudouin d'Aumeries
Technical & hardware support : Manuel Goepfert
Assistance : Marc-Olivier Méhu




SOURCES & CREDITS :

   NOAA       Earth
Advisory